»·PEaware :: N642RG KSMO-KSBA

N642RG :: KSMO-KSBA

FLIGHT INFORMATION

Flight Status: Arrived
Operator: Privately registered:
United States
More flights under this callsign
Pilot: Rob G. (11696)
Aircraft: Unknown
(DA62)
More flights by this aircraft type
Origin: KSMO Santa Monica Mun
United States
Destination: KSBA Santa Barbara Mun
United States
More flights between these airports :: More routes between these airports
Route: +SMO V107 SADDE V299 VTU VTU282 KWANG
File this flight plan on PilotEdge
Remarks:
Altitude:
(Current/Filed)
6,000ft
Speed:
(Current/Filed)
140kts
Departed: 27-Aug-18 12:06 PM
Arrived: 27-Aug-18 12:52 PM
Distance/Time
Traveled:
73nm/0:46
Distance/Time
To Go:
Arrived

Flight Plot

Page will automatically refresh every two minutes.


Map Options




Map Legend


Flown Route
Filed Route
Departure Airport
Arrival Airport
Navaid (VOR, NDB)
Fix

Horizontal Profiles

Position Reports

Time Latitude Longitude Heading Altitude Ground
Speed
27-Aug-18 11:46 34.014632 -118.454380 134 133ft 0kts
27-Aug-18 11:47 34.014632 -118.454380 134 133ft 0kts
27-Aug-18 11:48 34.014632 -118.454380 134 133ft 0kts
27-Aug-18 11:49 34.014632 -118.454380 134 133ft 0kts
27-Aug-18 11:50 34.014632 -118.454380 134 133ft 0kts
27-Aug-18 11:51 34.014632 -118.454380 134 133ft 0kts
27-Aug-18 11:52 34.014632 -118.454380 134 133ft 0kts
27-Aug-18 11:53 34.014632 -118.454380 134 133ft 0kts
27-Aug-18 11:54 34.014632 -118.454380 134 133ft 0kts
27-Aug-18 11:55 34.014632 -118.454380 134 133ft 0kts
27-Aug-18 11:56 34.014632 -118.454380 134 133ft 0kts
27-Aug-18 11:57 34.014632 -118.454380 134 133ft 0kts
27-Aug-18 11:58 34.014632 -118.454380 134 133ft 0kts
27-Aug-18 11:59 34.014632 -118.454380 134 133ft 0kts
27-Aug-18 12:00 34.014632 -118.454380 134 133ft 0kts
27-Aug-18 12:01 34.014632 -118.454380 134 133ft 0kts
27-Aug-18 12:02 34.016220 -118.451976 44 140ft 22kts
27-Aug-18 12:03 34.018893 -118.448818 45 155ft 0kts
27-Aug-18 12:04 34.019547 -118.447721 134 160ft 0kts
27-Aug-18 12:05 34.019547 -118.447721 134 160ft 0kts
27-Aug-18 12:06 34.018996 -118.447561 224 159ft 13kts
27-Aug-18 12:07 34.003175 -118.465182 222 747ft 100kts
27-Aug-18 12:08 33.985373 -118.492621 255 1809ft 109kts
27-Aug-18 12:09 33.979575 -118.528380 257 2932ft 109kts
27-Aug-18 12:10 33.974596 -118.564129 259 4059ft 107kts
27-Aug-18 12:11 33.976551 -118.598749 292 5189ft 109kts
27-Aug-18 12:12 33.991774 -118.631546 293 5994ft 131kts
27-Aug-18 12:13 34.010995 -118.672496 293 5995ft 152kts
27-Aug-18 12:14 34.031448 -118.718104 285 5994ft 154kts
27-Aug-18 12:15 34.039189 -118.768534 272 5996ft 152kts
27-Aug-18 12:16 34.043963 -118.819417 272 5997ft 152kts
27-Aug-18 12:17 34.049699 -118.861712 286 5998ft 155kts
27-Aug-18 12:18 34.065870 -118.908925 287 5998ft 156kts
27-Aug-18 12:19 34.082601 -118.956893 288 5999ft 156kts
27-Aug-18 12:20 34.099311 -119.004686 288 5998ft 155kts
27-Aug-18 12:21 34.116008 -119.051867 292 5996ft 154kts
27-Aug-18 12:22 34.132265 -119.090888 295 5995ft 153kts
27-Aug-18 12:23 34.146666 -119.125230 296 6008ft 151kts
27-Aug-18 12:24 34.161023 -119.159446 297 6011ft 152kts
27-Aug-18 12:25 34.175414 -119.193776 297 6010ft 152kts
27-Aug-18 12:26 34.189896 -119.228353 298 6010ft 153kts
27-Aug-18 12:27 34.208548 -119.272945 298 6009ft 154kts
27-Aug-18 12:28 34.227889 -119.319170 298 6009ft 154kts
27-Aug-18 12:29 34.247214 -119.365431 298 6009ft 154kts
27-Aug-18 12:30 34.266526 -119.411827 298 6009ft 154kts
27-Aug-18 12:31 34.285829 -119.458269 299 6009ft 155kts
27-Aug-18 12:32 34.303856 -119.505608 277 5963ft 159kts
27-Aug-18 12:33 34.300982 -119.561304 269 5234ft 162kts
27-Aug-18 12:34 34.297602 -119.614287 268 4829ft 156kts
27-Aug-18 12:35 34.294327 -119.666311 261 4434ft 155kts
27-Aug-18 12:36 34.290893 -119.718088 261 4027ft 153kts
27-Aug-18 12:37 34.287435 -119.770960 261 3991ft 161kts
27-Aug-18 12:38 34.283870 -119.825211 261 3990ft 162kts
27-Aug-18 12:39 34.280059 -119.879585 260 3990ft 162kts
27-Aug-18 12:40 34.275664 -119.933731 260 3990ft 162kts
27-Aug-18 12:41 34.271228 -119.988130 260 3990ft 162kts
27-Aug-18 12:42 34.266758 -120.042477 260 3993ft 163kts
27-Aug-18 12:43 34.281071 -120.086776 356 3998ft 159kts
27-Aug-18 12:44 34.324691 -120.087768 1 4000ft 156kts
27-Aug-18 12:45 34.368004 -120.088298 1 4001ft 156kts
27-Aug-18 12:46 34.410322 -120.088265 14 3721ft 155kts
27-Aug-18 12:47 34.423128 -120.042735 87 3019ft 138kts
27-Aug-18 12:48 34.424433 -120.004631 88 2364ft 100kts
27-Aug-18 12:49 34.425051 -119.970298 90 1858ft 104kts
27-Aug-18 12:50 34.426014 -119.934928 90 1306ft 102kts
27-Aug-18 12:51 34.426625 -119.902703 90 790ft 87kts
27-Aug-18 12:52 34.427176 -119.873836 91 347ft 84kts
27-Aug-18 12:53 34.427649 -119.848323 87 14ft 36kts
27-Aug-18 12:54 34.428690 -119.845007 69 13ft 0kts

Navigation Log

Ident Type
1. KSMO Airport
2. SMO Navaid
3. BAYST Fix
4. SADDE Fix
5. VTU Navaid
6. KWANG Fix
7. KSBA Airport